Aurelius, NY

6:16 AM EDT on March 27, 2015 (GMT -0400)
Sunholm Farms | | Change Station
CLOSE
Current Station
Personal Weather Station
Location: Fleming, NY
Elevation: 784 ft
Nearby Weather Stations

Elev 784 ft 42.86 °N, 76.63 °W | Updated 17 seconds ago

Overcast
Overcast
33.4 °F
Feels Like 26 °F
N
8.2
Wind Variable Wind from NNW
Gusts 8.2 mph

Today
High -- | Low -- °F
--% Chance of Precip.
Yesterday
High -- | Low -- °F
Precip. -- in
6:57 AM 7:26 PM
Waxing Crescent, 51% visible
Pressure 29.79 in
Visibility 6.0 miles
Clouds Few 1000 ft
Mostly Cloudy 2700 ft
Overcast 6500 ft
Windchill 26 °F
Dew Point 30 °F
Humidity 87%
Rainfall 0.00 in
Snow Depth Not available.
UV 0 out of 12
Pollen .60 out of 12
Air Quality Not available.
Flu Activity Not available.
SPECI KSYR 271008Z 26007KT 6SM BR FEW010 BKN027 OVC065 01/00 A2979 RMK AO2 T00110000

More Conditions Fewer Conditions

Pressure 29.79 in
Visibility 6.0 miles
Clouds Few 1000 ft
Mostly Cloudy 2700 ft
Overcast 6500 ft
Windchill 26 °F
Dew Point 30 °F
Humidity 87%
Rainfall 0.00 in
Snow Depth Not available.
UV 0 out of 12
Pollen .60 out of 12
Air Quality Not available.
Flu Activity Not available.
SPECI KSYR 271008Z 26007KT 6SM BR FEW010 BKN027 OVC065 01/00 A2979 RMK AO2 T00110000

More Conditions Fewer Conditions

10-Day Weather Forecast

Almanac

Astronomy

Mar. 27, 2015 Rise Set
Actual Time
Civil Twilight
Nautical Twilight
Astronomical Twilight
Moon
Length of Visible Light
Length of Day
Tomorrow will be .
, % of the Moon is Illuminated

Today's Extremes

State Highs State Lows

Community

WunderPhotos

Upload Photos

1,808,705 photos uploaded!

WunderBlogs® & News

Nearby

Air Quality

  Air Quality AQ Index Pollutant
Not available.

Snow Depth

Station Depth Elevation

Earthquake Activity

City Distance Mag. Time & Date
Minimum magnitude displayed is 2.5.

Coastal Water Temperatures

Place Temperature

Stations

Nearby Weather Stations

Station Location Temp. Windchill Dew Point Humidity Wind Precip. Elev Updated Type